Flight Track Log - Related Links

Times and Time Zones

All times are in EDT time to prevent confusion due to time zone crossing. See the ACA7017 flight status page for this flight to view local times or setup timezone preferences in your user account.

Time Position Orientation Groundspeed Altitude Reporting Facility
EDT Latitude Longitude Course Direction KTS MPH feet Rate Location/Type
Tue 11:52:13 PM 38.5833 -90.2500 356° North 187 215 4,200  Level Gateway (St. Louis) TRACON
Tue 11:53:19 PM 38.6533 -90.2714 347° North 229 264 7,600 3,213 Climbing Kansas City Center
Tue 11:54:20 PM 38.7308 -90.2831 353° North 257 296 11,000 2,951 Climbing Kansas City Center
Tue 11:55:21 PM 38.8064 -90.2961 352° North 276 318 13,600 2,281 Climbing Kansas City Center
Tue 11:56:21 PM 38.8911 -90.3094 353° North 314 361 15,600 2,430 Climbing Kansas City Center
Tue 11:57:00 PM 39.1712 -90.4633 356° North  Level Estimated
Tue 11:57:22 PM 38.9911 -90.3244 353° North 338 389 18,500  Level Kansas City Center
Tue 11:58:23 PM 39.0908 -90.3408 353° North 356 410 21,200 2,231 Climbing Kansas City Center
Tue 11:59:23 PM 39.1864 -90.3833 341° North 362 417 23,000 2,182 Climbing Kansas City Center
Wed 12:00:24 AM 39.2833 -90.4264 341° North 369 425 25,600 2,164 Climbing Kansas City Center
Wed 12:01:25 AM 39.3803 -90.4692 341° North 368 423 27,400 2,083 Climbing Kansas City Center
Wed 12:02:25 AM 39.4781 -90.5139 341° North 372 428 29,800 1,983 Climbing Kansas City Center
Wed 12:03:26 AM 39.5739 -90.5564 341° North 368 423 31,400 1,279 Climbing Kansas City Center
Wed 12:04:27 AM 39.6719 -90.6017 340° North 371 427 32,400 1,240 Climbing Kansas City Center
Wed 12:05:27 AM 39.7878 -90.6553 340° North 379 436 33,900 1,537 Climbing Kansas City Center
Wed 12:06:28 AM 39.8878 -90.7011 341° North 379 436 35,500 1,033 Climbing Kansas City Center
Wed 12:07:29 AM 39.9850 -90.7453 341° North 373 429 36,000 541 Climbing Kansas City Center
Wed 12:08:30 AM 40.0881 -90.7931 340° North 382 440 36,600 744 Climbing Kansas City Center
Wed 12:09:30 AM 40.1939 -90.8411 341° North 393 452 37,500 694 Climbing Kansas City Center
Wed 12:10:31 AM 40.2983 -90.8897 340° North 397 457 38,000 246 Climbing Kansas City Center
Wed 12:11:32 AM 40.4014 -90.9381 340° North 395 455 38,000  Level Kansas City Center
Wed 12:12:32 AM 40.5064 -90.9872 340° North 396 456 38,000  Level Kansas City Center
Wed 12:17:56 AM 41.0360 -91.2380 340° North 410 472 38,000  Level FlightAware ADS-B
Wed 12:18:31 AM 41.0970 -91.2710 338° Northwest 401 461 38,000  Level FlightAware ADS-B
Wed 12:19:28 AM 41.1850 -91.3110 341° North 401 461 38,000  Level FlightAware ADS-B
Wed 12:20:29 AM 41.2760 -91.3550 340° North 401 461 38,000  Level FlightAware ADS-B
Wed 12:21:05 AM 41.3290 -91.3810 340° North 401 461 38,000  Level FlightAware ADS-B
Wed 12:21:53 AM 41.4000 -91.4150 340° North 401 461 38,000  Level FlightAware ADS-B
Wed 12:22:41 AM 41.4710 -91.4500 340° North 401 461 38,000  Level FlightAware ADS-B
Wed 12:23:05 AM 41.5070 -91.4670 341° North 401 461 38,000  Level FlightAware ADS-B
Wed 12:23:41 AM 41.5600 -91.4930 340° North 401 461 38,000  Level FlightAware ADS-B
Wed 12:24:29 AM 41.6320 -91.5280 340° North 401 461 38,000  Level FlightAware ADS-B
Wed 12:25:29 AM 41.7200 -91.5710 340° North 401 461 38,000  Level FlightAware ADS-B
Wed 12:26:29 AM 41.8090 -91.6140 340° North 401 461 38,000  Level FlightAware ADS-B
Wed 12:27:17 AM 41.8800 -91.6490 340° North 401 461 38,000  Level FlightAware ADS-B
Wed 12:28:05 AM 41.9520 -91.6840 340° North 401 461 38,000  Level FlightAware ADS-B
Wed 12:28:30 AM 41.9890 -91.7020 340° North 401 461 38,000  Level FlightAware ADS-B
Wed 12:28:54 AM 42.0240 -91.7200 339° North 401 461 38,000  Level FlightAware ADS-B
Wed 12:29:44 AM 42.2956 -91.8531 339° North 398 458 38,000  Level Chicago Center
Wed 12:30:44 AM 42.4000 -91.9044 340° North 400 460 38,000  Level Chicago Center
Wed 12:31:45 AM 42.5042 -91.9558 340° North 400 460 38,000  Level Chicago Center
Wed 12:32:45 AM 42.6069 -92.0069 340° North 393 452 38,000  Level Chicago Center
Wed 12:33:45 AM 42.7100 -92.0608 339° North 395 455 38,000  Level Chicago Center
Wed 12:34:46 AM 42.8131 -92.1136 339° North 396 456 38,000  Level Chicago Center
Wed 12:35:46 AM 42.9153 -92.1669 339° North 394 453 38,000  Level Chicago Center
Wed 12:36:46 AM 43.0172 -92.2183 340° North 392 451 38,000  Level Chicago Center
Wed 12:37:47 AM 43.1192 -92.2703 340° North 392 451 38,000  Level Chicago Center
Wed 12:38:47 AM 43.2192 -92.3222 339° North 387 445 38,000  Level Chicago Center
Wed 12:39:47 AM 43.3192 -92.3731 340° North 385 443 38,000  Level Chicago Center
Wed 12:40:58 AM 43.4381 -92.4353 339° North 384 442 38,000  Level Minneapolis Center
Wed 12:41:58 AM 43.5361 -92.4875 339° North 382 440 38,000  Level Minneapolis Center
Wed 12:42:59 AM 43.6353 -92.5400 339° North 383 441 38,000  Level Minneapolis Center
Wed 12:43:59 AM 43.7356 -92.5903 340° North 387 445 38,000  Level Minneapolis Center
Wed 12:44:59 AM 43.8483 -92.6511 339° North 387 445 38,000  Level Minneapolis Center
Wed 12:46:00 AM 43.9492 -92.7039 339° North 386 444 38,000  Level Minneapolis Center
Wed 12:47:00 AM 44.0497 -92.7567 339° North 386 444 38,000  Level Minneapolis Center
Wed 12:48:00 AM 44.1511 -92.8108 339° North 390 449 38,000  Level Minneapolis Center
Wed 12:49:01 AM 44.2514 -92.8647 339° North 387 445 38,000  Level Minneapolis Center
Wed 12:50:01 AM 44.3525 -92.9189 339° North 389 448 38,000  Level Minneapolis Center
Wed 12:51:01 AM 44.4544 -92.9717 340° North 392 451 38,000  Level Minneapolis Center
Wed 12:52:01 AM 44.5550 -93.0264 339° North 389 448 38,000  Level Minneapolis Center
Wed 12:53:02 AM 44.6558 -93.0800 339° North 389 448 38,000  Level Minneapolis Center
Wed 12:54:02 AM 44.7600 -93.1364 339° North 393 452 38,000  Level Minneapolis Center
Wed 12:55:02 AM 44.8603 -93.1908 339° North 392 451 38,000  Level Minneapolis Center
Wed 12:56:03 AM 44.9522 -93.2400 339° North 388 447 38,000  Level Minneapolis Center
Wed 12:57:03 AM 45.0531 -93.2950 339° North 390 449 38,000  Level Minneapolis Center
Wed 12:58:03 AM 45.1550 -93.3519 339° North 392 451 38,000  Level Minneapolis Center
Wed 12:59:03 AM 45.2564 -93.4089 338° Northwest 393 452 38,000  Level Minneapolis Center
Wed 01:00:04 AM 45.3597 -93.4658 339° North 396 456 38,000  Level Minneapolis Center
Wed 01:01:04 AM 45.4639 -93.5250 338° Northwest 401 461 38,000  Level Minneapolis Center
Wed 01:02:04 AM 45.5692 -93.5853 338° Northwest 406 467 38,000  Level Minneapolis Center
Wed 01:03:04 AM 45.6767 -93.6464 338° Northwest 412 474 38,000  Level Minneapolis Center
Wed 01:04:05 AM 45.8072 -93.7203 338° Northwest 419 482 38,000  Level Minneapolis Center
Wed 01:05:05 AM 45.9164 -93.7819 339° North 422 486 38,000  Level Minneapolis Center
Wed 01:06:05 AM 46.0272 -93.8431 339° North 425 489 38,000  Level Minneapolis Center
Wed 01:07:05 AM 46.1389 -93.9078 338° Northwest 429 494 38,000  Level Minneapolis Center
Wed 01:08:06 AM 46.2294 -93.9614 338° Northwest 433 498 38,000  Level Minneapolis Center
Wed 01:09:06 AM 46.3428 -94.0269 338° Northwest 437 503 38,000 -50 Level Minneapolis Center
Wed 01:10:06 AM 46.4558 -94.0878 340° North 435 501 37,900  Descending Minneapolis Center
Wed 01:11:06 AM 46.5714 -94.1453 341° North 437 503 38,000 50 Climbing Minneapolis Center
Wed 01:12:06 AM 46.6861 -94.2064 340° North 438 504 38,000  Level Minneapolis Center
Wed 01:13:07 AM 46.8003 -94.2686 340° North 438 504 38,000 -50 Level Minneapolis Center
Wed 01:14:07 AM 46.9136 -94.3264 341° North 432 497 37,900 -50 Descending Minneapolis Center
Wed 01:15:07 AM 47.0253 -94.3869 340° North 428 493 37,900  Level Minneapolis Center
Wed 01:16:07 AM 47.1364 -94.4478 340° North 427 491 37,900 50 Level Minneapolis Center
Wed 01:17:08 AM 47.2469 -94.5094 339° North 425 489 38,000 50 Climbing Minneapolis Center
Wed 01:18:08 AM 47.3594 -94.5689 340° North 427 491 38,000 -50 Level Minneapolis Center
Wed 01:19:08 AM 47.4700 -94.6294 340° North 426 490 37,900 -50 Descending Minneapolis Center
Wed 01:20:08 AM 47.5778 -94.6911 339° North 420 483 37,900 50 Level Minneapolis Center
Wed 01:21:09 AM 47.6872 -94.7514 340° North 419 482 38,000 50 Climbing Minneapolis Center
Wed 01:22:09 AM 47.7967 -94.8122 340° North 419 482 38,000 -50 Level Minneapolis Center
Wed 01:23:09 AM 47.9047 -94.8703 340° North 417 480 37,900 -50 Descending Minneapolis Center
Wed 01:24:09 AM 48.0117 -94.9311 339° North 413 475 37,900  Level Minneapolis Center
Wed 01:25:10 AM 48.1406 -95.0017 340° North 411 473 37,900  Level Minneapolis Center
Wed 01:26:10 AM 48.2467 -95.0619 339° North 410 472 37,900 50 Level Minneapolis Center
Wed 01:27:10 AM 48.3528 -95.1222 339° North 409 471 38,000 50 Climbing Minneapolis Center
Wed 01:28:10 AM 48.4575 -95.1839 339° North 407 468 38,000  Level Minneapolis Center
Wed 01:29:10 AM 48.5525 -95.2769 327° Northwest 413 475 38,000 -50 Level Minneapolis Center
Wed 01:30:11 AM 48.6414 -95.3867 321° Northwest 414 476 37,900 -694 Descending Minneapolis Center
Wed 01:31:11 AM 48.7292 -95.4961 321° Northwest 412 474 36,600 -1,700 Descending Minneapolis Center
Wed 01:32:11 AM 48.8164 -95.6050 321° Northwest 405 466 34,500 -2,050 Descending Minneapolis Center
Wed 01:33:11 AM 48.9003 -95.7089 321° Northwest 396 456 32,500 -1,934 Descending Minneapolis Center
Wed 01:34:12 AM 48.9825 -95.8111 321° Northwest 388 447 30,600 -1,945 Descending Minneapolis Center
Wed 01:35:36 AM 49.0667 -95.9500 313° West 370 426 27,800 -1,917 Descending Winnipeg Center
Wed 01:36:36 AM 49.1500 -96.0167 332° Northwest 360 414 26,000 -1,900 Descending Winnipeg Center
Wed 01:37:36 AM 49.2167 -96.1167 316° Northwest 350 403 24,000 -1,950 Descending Winnipeg Center
Wed 01:38:36 AM 49.2833 -96.2167 316° Northwest 340 391 22,100 -1,950 Descending Winnipeg Center
Wed 01:39:36 AM 49.3833 -96.3167 327° Northwest 330 380 20,100 -1,850 Descending Winnipeg Center
Wed 01:40:36 AM 49.4500 -96.4000 321° Northwest 330 380 18,400 -1,650 Descending Winnipeg Center
Wed 01:41:36 AM 49.5167 -96.4833 321° Northwest 310 357 16,800 -1,600 Descending Winnipeg Center
Wed 01:42:36 AM 49.5667 -96.5500 319° Northwest 290 334 15,200 -1,600 Descending Winnipeg Center
Wed 01:43:36 AM 49.6333 -96.6333 321° Northwest 290 334 13,600 -1,600 Descending Winnipeg Center
Wed 01:44:36 AM 49.7000 -96.7000 327° Northwest 280 322 12,000 -1,700 Descending Winnipeg Center
Wed 01:45:36 AM 49.7500 -96.7833 313° West 280 322 10,200 -1,850 Descending Winnipeg Center
Wed 01:46:36 AM 49.8167 -96.8667 321° Northwest 280 322 8,300 -1,650 Descending Winnipeg Center
Wed 01:47:36 AM 49.8833 -96.9333 327° Northwest 270 311 6,900 -1,650 Descending Winnipeg Center
Wed 01:48:36 AM 49.9333 -97.0167 313° West 260 299 5,000 -1,550 Descending Winnipeg Center
Wed 01:49:36 AM 50.0000 -97.0667 334° Northwest 250 288 3,800 -750 Descending Winnipeg Center
Wed 01:50:36 AM 50.0333 -97.1500 302° West 200 230 3,500 -450 Descending Winnipeg Center
Wed 01:51:36 AM 50.0167 -97.2000 243° Southwest 170 196 2,900 -700 Descending Winnipeg Center
Wed 01:52:36 AM 49.9667 -97.2000 180° South 150 173 2,100 -800 Descending Winnipeg Center
Wed 01:53:36 AM 49.9333 -97.2333 213° Southwest 110 127 1,300 -700 Descending Winnipeg Center
Wed 01:54:36 AM 49.9000 -97.2333 180° South 120 138 700 -600 Descending Winnipeg Center

Login

Don't have an account? Register now (free) for customized features, flight alerts, and more!